sensor_id;sensor_type;location;lat;lon;timestamp;P1;durP1;ratioP1;P2;durP2;ratioP2
30010;SDS011;16851;53.564;8.112;2024-02-23T00:04:25;0.30;;;0.30;;
30010;SDS011;16851;53.564;8.112;2024-02-23T00:09:29;1.80;;;0.50;;
30010;SDS011;16851;53.564;8.112;2024-02-23T00:14:35;1.50;;;0.50;;
30010;SDS011;16851;53.564;8.112;2024-02-23T00:19:44;0.40;;;0.40;;
30010;SDS011;16851;53.564;8.112;2024-02-23T00:24:47;1.27;;;0.53;;
30010;SDS011;16851;53.564;8.112;2024-02-23T00:29:51;0.40;;;0.40;;
30010;SDS011;16851;53.564;8.112;2024-02-23T00:34:55;1.07;;;0.50;;
30010;SDS011;16851;53.564;8.112;2024-02-23T00:40:01;0.80;;;0.47;;
30010;SDS011;16851;53.564;8.112;2024-02-23T00:45:08;1.03;;;0.50;;
30010;SDS011;16851;53.564;8.112;2024-02-23T00:50:12;1.60;;;0.60;;
30010;SDS011;16851;53.564;8.112;2024-02-23T00:55:14;1.23;;;0.50;;
30010;SDS011;16851;53.564;8.112;2024-02-23T01:00:16;2.10;;;0.50;;
30010;SDS011;16851;53.564;8.112;2024-02-23T01:05:18;0.90;;;0.50;;
30010;SDS011;16851;53.564;8.112;2024-02-23T01:10:23;4.00;;;0.90;;
30010;SDS011;16851;53.564;8.112;2024-02-23T01:15:25;2.67;;;0.63;;
30010;SDS011;16851;53.564;8.112;2024-02-23T01:20:29;6.50;;;0.83;;
30010;SDS011;16851;53.564;8.112;2024-02-23T01:25:33;3.63;;;0.73;;
30010;SDS011;16851;53.564;8.112;2024-02-23T01:30:36;3.50;;;0.90;;
30010;SDS011;16851;53.564;8.112;2024-02-23T01:35:40;4.43;;;1.13;;
30010;SDS011;16851;53.564;8.112;2024-02-23T01:40:42;8.93;;;1.20;;
30010;SDS011;16851;53.564;8.112;2024-02-23T01:45:44;7.17;;;1.10;;
30010;SDS011;16851;53.564;8.112;2024-02-23T01:50:46;5.03;;;1.13;;
30010;SDS011;16851;53.564;8.112;2024-02-23T01:55:51;5.40;;;0.90;;
30010;SDS011;16851;53.564;8.112;2024-02-23T02:00:54;1.67;;;0.60;;
30010;SDS011;16851;53.564;8.112;2024-02-23T02:05:56;3.03;;;0.90;;
30010;SDS011;16851;53.564;8.112;2024-02-23T02:11:00;1.40;;;0.70;;
30010;SDS011;16851;53.564;8.112;2024-02-23T02:16:05;1.87;;;0.80;;
30010;SDS011;16851;53.564;8.112;2024-02-23T02:21:07;7.77;;;1.27;;
30010;SDS011;16851;53.564;8.112;2024-02-23T02:26:09;4.20;;;0.90;;
30010;SDS011;16851;53.564;8.112;2024-02-23T02:31:11;5.07;;;1.23;;
30010;SDS011;16851;53.564;8.112;2024-02-23T02:36:13;5.70;;;1.10;;
30010;SDS011;16851;53.564;8.112;2024-02-23T02:41:15;5.50;;;1.40;;
30010;SDS011;16851;53.564;8.112;2024-02-23T02:46:20;5.33;;;1.77;;
30010;SDS011;16851;53.564;8.112;2024-02-23T02:51:22;12.37;;;1.60;;
30010;SDS011;16851;53.564;8.112;2024-02-23T02:56:29;5.10;;;1.63;;
30010;SDS011;16851;53.564;8.112;2024-02-23T03:01:31;4.93;;;1.33;;
30010;SDS011;16851;53.564;8.112;2024-02-23T03:06:35;5.10;;;1.07;;
30010;SDS011;16851;53.564;8.112;2024-02-23T03:11:39;10.13;;;2.47;;
30010;SDS011;16851;53.564;8.112;2024-02-23T03:16:41;10.37;;;1.30;;
30010;SDS011;16851;53.564;8.112;2024-02-23T03:21:43;7.23;;;1.37;;
30010;SDS011;16851;53.564;8.112;2024-02-23T03:26:45;14.67;;;2.73;;
30010;SDS011;16851;53.564;8.112;2024-02-23T03:31:52;3.13;;;1.20;;
30010;SDS011;16851;53.564;8.112;2024-02-23T03:36:56;9.57;;;1.63;;
30010;SDS011;16851;53.564;8.112;2024-02-23T03:42:02;6.57;;;1.60;;
30010;SDS011;16851;53.564;8.112;2024-02-23T03:47:03;4.43;;;1.60;;
30010;SDS011;16851;53.564;8.112;2024-02-23T03:52:06;5.67;;;1.67;;
30010;SDS011;16851;53.564;8.112;2024-02-23T03:57:07;7.83;;;1.87;;
30010;SDS011;16851;53.564;8.112;2024-02-23T04:02:12;4.77;;;1.83;;
30010;SDS011;16851;53.564;8.112;2024-02-23T04:07:16;3.07;;;1.70;;
30010;SDS011;16851;53.564;8.112;2024-02-23T04:12:18;6.57;;;1.83;;
30010;SDS011;16851;53.564;8.112;2024-02-23T04:17:26;13.77;;;2.20;;
30010;SDS011;16851;53.564;8.112;2024-02-23T04:22:31;11.47;;;2.50;;
30010;SDS011;16851;53.564;8.112;2024-02-23T04:27:33;8.07;;;2.73;;
30010;SDS011;16851;53.564;8.112;2024-02-23T04:32:39;7.10;;;2.00;;
30010;SDS011;16851;53.564;8.112;2024-02-23T04:37:45;10.17;;;1.87;;
30010;SDS011;16851;53.564;8.112;2024-02-23T04:42:51;7.43;;;2.27;;
30010;SDS011;16851;53.564;8.112;2024-02-23T04:47:55;9.97;;;2.17;;
30010;SDS011;16851;53.564;8.112;2024-02-23T04:53:02;9.90;;;2.30;;
30010;SDS011;16851;53.564;8.112;2024-02-23T04:58:03;9.73;;;2.40;;
30010;SDS011;16851;53.564;8.112;2024-02-23T05:03:05;7.63;;;2.27;;
30010;SDS011;16851;53.564;8.112;2024-02-23T05:08:15;7.63;;;2.20;;
30010;SDS011;16851;53.564;8.112;2024-02-23T05:13:19;4.70;;;1.90;;
30010;SDS011;16851;53.564;8.112;2024-02-23T05:18:21;13.40;;;2.47;;
30010;SDS011;16851;53.564;8.112;2024-02-23T05:23:25;10.37;;;2.10;;
30010;SDS011;16851;53.564;8.112;2024-02-23T05:28:27;3.87;;;1.60;;
30010;SDS011;16851;53.564;8.112;2024-02-23T05:33:29;6.70;;;1.80;;
30010;SDS011;16851;53.564;8.112;2024-02-23T05:38:33;9.00;;;1.57;;
30010;SDS011;16851;53.564;8.112;2024-02-23T05:43:35;7.30;;;2.07;;
30010;SDS011;16851;53.564;8.112;2024-02-23T05:48:37;9.20;;;1.70;;
30010;SDS011;16851;53.564;8.112;2024-02-23T05:53:40;16.00;;;2.60;;
30010;SDS011;16851;53.564;8.112;2024-02-23T05:58:43;4.07;;;1.80;;
30010;SDS011;16851;53.564;8.112;2024-02-23T06:03:49;4.47;;;1.27;;
30010;SDS011;16851;53.564;8.112;2024-02-23T06:08:57;8.77;;;2.07;;
30010;SDS011;16851;53.564;8.112;2024-02-23T06:14:02;8.27;;;1.90;;
30010;SDS011;16851;53.564;8.112;2024-02-23T06:19:09;8.03;;;1.60;;
30010;SDS011;16851;53.564;8.112;2024-02-23T06:24:17;10.87;;;1.90;;
30010;SDS011;16851;53.564;8.112;2024-02-23T06:29:23;8.87;;;2.63;;
30010;SDS011;16851;53.564;8.112;2024-02-23T06:34:29;11.13;;;2.97;;
30010;SDS011;16851;53.564;8.112;2024-02-23T06:39:32;10.95;;;3.17;;
30010;SDS011;16851;53.564;8.112;2024-02-23T06:44:39;8.07;;;2.20;;
30010;SDS011;16851;53.564;8.112;2024-02-23T06:49:42;9.70;;;2.80;;
30010;SDS011;16851;53.564;8.112;2024-02-23T06:54:48;12.87;;;4.00;;
30010;SDS011;16851;53.564;8.112;2024-02-23T06:59:52;8.80;;;2.67;;
30010;SDS011;16851;53.564;8.112;2024-02-23T07:04:55;6.33;;;2.97;;
30010;SDS011;16851;53.564;8.112;2024-02-23T07:09:59;7.97;;;3.43;;
30010;SDS011;16851;53.564;8.112;2024-02-23T07:15:07;9.53;;;3.73;;
30010;SDS011;16851;53.564;8.112;2024-02-23T07:20:10;9.17;;;3.43;;
30010;SDS011;16851;53.564;8.112;2024-02-23T07:25:19;9.77;;;4.00;;
30010;SDS011;16851;53.564;8.112;2024-02-23T07:30:24;11.57;;;4.03;;
30010;SDS011;16851;53.564;8.112;2024-02-23T07:35:27;11.13;;;3.77;;
30010;SDS011;16851;53.564;8.112;2024-02-23T07:40:29;10.47;;;3.37;;
30010;SDS011;16851;53.564;8.112;2024-02-23T07:45:34;11.17;;;4.30;;
30010;SDS011;16851;53.564;8.112;2024-02-23T07:50:37;9.63;;;3.90;;
30010;SDS011;16851;53.564;8.112;2024-02-23T07:55:40;10.27;;;3.27;;
30010;SDS011;16851;53.564;8.112;2024-02-23T08:00:43;9.23;;;3.60;;
30010;SDS011;16851;53.564;8.112;2024-02-23T08:05:46;8.13;;;2.90;;
30010;SDS011;16851;53.564;8.112;2024-02-23T08:10:48;11.70;;;3.30;;
30010;SDS011;16851;53.564;8.112;2024-02-23T08:15:56;11.73;;;3.43;;
30010;SDS011;16851;53.564;8.112;2024-02-23T08:21:01;7.73;;;2.87;;
30010;SDS011;16851;53.564;8.112;2024-02-23T08:26:08;9.07;;;3.07;;
30010;SDS011;16851;53.564;8.112;2024-02-23T08:31:12;18.07;;;4.00;;
30010;SDS011;16851;53.564;8.112;2024-02-23T08:36:15;15.10;;;3.27;;
30010;SDS011;16851;53.564;8.112;2024-02-23T08:41:17;9.97;;;3.23;;
30010;SDS011;16851;53.564;8.112;2024-02-23T08:46:19;4.83;;;1.87;;
30010;SDS011;16851;53.564;8.112;2024-02-23T08:51:22;8.37;;;2.67;;
30010;SDS011;16851;53.564;8.112;2024-02-23T08:56:24;7.30;;;2.40;;
30010;SDS011;16851;53.564;8.112;2024-02-23T09:01:27;11.53;;;2.70;;
30010;SDS011;16851;53.564;8.112;2024-02-23T09:06:29;16.07;;;2.80;;
30010;SDS011;16851;53.564;8.112;2024-02-23T09:11:33;6.83;;;2.20;;
30010;SDS011;16851;53.564;8.112;2024-02-23T09:16:38;9.57;;;2.27;;
30010;SDS011;16851;53.564;8.112;2024-02-23T09:21:40;10.80;;;2.77;;
30010;SDS011;16851;53.564;8.112;2024-02-23T09:26:51;6.97;;;2.03;;
30010;SDS011;16851;53.564;8.112;2024-02-23T09:31:53;6.47;;;1.63;;
30010;SDS011;16851;53.564;8.112;2024-02-23T09:36:58;8.77;;;1.90;;
30010;SDS011;16851;53.564;8.112;2024-02-23T09:42:06;9.63;;;2.20;;
30010;SDS011;16851;53.564;8.112;2024-02-23T09:47:11;4.63;;;1.50;;
30010;SDS011;16851;53.564;8.112;2024-02-23T09:52:14;6.10;;;1.57;;
30010;SDS011;16851;53.564;8.112;2024-02-23T09:57:19;5.43;;;1.60;;
30010;SDS011;16851;53.564;8.112;2024-02-23T10:02:25;10.97;;;2.70;;
30010;SDS011;16851;53.564;8.112;2024-02-23T10:07:27;4.43;;;1.40;;
30010;SDS011;16851;53.564;8.112;2024-02-23T10:12:33;5.87;;;1.30;;
30010;SDS011;16851;53.564;8.112;2024-02-23T10:17:35;9.70;;;1.80;;
30010;SDS011;16851;53.564;8.112;2024-02-23T10:22:38;5.13;;;1.63;;
30010;SDS011;16851;53.564;8.112;2024-02-23T10:27:41;6.77;;;1.73;;
30010;SDS011;16851;53.564;8.112;2024-02-23T10:32:46;8.27;;;1.77;;
30010;SDS011;16851;53.564;8.112;2024-02-23T10:37:50;8.70;;;1.57;;
30010;SDS011;16851;53.564;8.112;2024-02-23T10:42:58;3.87;;;1.20;;
30010;SDS011;16851;53.564;8.112;2024-02-23T10:48:14;5.07;;;1.60;;
30010;SDS011;16851;53.564;8.112;2024-02-23T10:53:18;5.20;;;1.30;;
30010;SDS011;16851;53.564;8.112;2024-02-23T10:58:21;5.77;;;1.43;;
30010;SDS011;16851;53.564;8.112;2024-02-23T11:03:25;9.47;;;1.90;;
30010;SDS011;16851;53.564;8.112;2024-02-23T11:08:28;1.87;;;0.80;;
30010;SDS011;16851;53.564;8.112;2024-02-23T11:13:34;7.80;;;1.40;;
30010;SDS011;16851;53.564;8.112;2024-02-23T11:18:39;7.87;;;1.30;;
30010;SDS011;16851;53.564;8.112;2024-02-23T11:23:45;5.33;;;1.60;;
30010;SDS011;16851;53.564;8.112;2024-02-23T11:28:53;8.83;;;3.17;;
30010;SDS011;16851;53.564;8.112;2024-02-23T11:33:57;6.87;;;1.40;;
30010;SDS011;16851;53.564;8.112;2024-02-23T11:39:00;5.47;;;1.70;;
30010;SDS011;16851;53.564;8.112;2024-02-23T11:44:03;5.73;;;1.43;;
30010;SDS011;16851;53.564;8.112;2024-02-23T11:49:08;8.90;;;2.20;;
30010;SDS011;16851;53.564;8.112;2024-02-23T11:54:11;4.80;;;1.50;;
30010;SDS011;16851;53.564;8.112;2024-02-23T11:59:20;8.87;;;2.53;;
30010;SDS011;16851;53.564;8.112;2024-02-23T12:04:26;7.13;;;1.47;;
30010;SDS011;16851;53.564;8.112;2024-02-23T12:09:31;8.00;;;1.93;;
30010;SDS011;16851;53.564;8.112;2024-02-23T12:14:39;4.47;;;1.37;;
30010;SDS011;16851;53.564;8.112;2024-02-23T12:19:44;5.07;;;1.23;;
30010;SDS011;16851;53.564;8.112;2024-02-23T12:24:50;5.07;;;1.43;;
30010;SDS011;16851;53.564;8.112;2024-02-23T12:29:55;8.00;;;1.87;;
30010;SDS011;16851;53.564;8.112;2024-02-23T12:34:57;5.43;;;1.27;;
30010;SDS011;16851;53.564;8.112;2024-02-23T12:39:59;5.80;;;1.60;;
30010;SDS011;16851;53.564;8.112;2024-02-23T12:45:04;4.23;;;1.10;;
30010;SDS011;16851;53.564;8.112;2024-02-23T12:50:11;5.53;;;1.27;;
30010;SDS011;16851;53.564;8.112;2024-02-23T12:55:13;6.83;;;1.30;;
30010;SDS011;16851;53.564;8.112;2024-02-23T13:00:16;13.30;;;4.40;;
30010;SDS011;16851;53.564;8.112;2024-02-23T13:05:21;5.93;;;1.57;;
30010;SDS011;16851;53.564;8.112;2024-02-23T13:10:23;3.30;;;1.30;;
30010;SDS011;16851;53.564;8.112;2024-02-23T13:15:26;4.10;;;1.43;;
30010;SDS011;16851;53.564;8.112;2024-02-23T13:20:30;4.30;;;1.17;;
30010;SDS011;16851;53.564;8.112;2024-02-23T13:25:33;4.10;;;1.20;;
30010;SDS011;16851;53.564;8.112;2024-02-23T13:30:35;3.60;;;1.10;;
30010;SDS011;16851;53.564;8.112;2024-02-23T13:35:41;7.23;;;1.33;;
30010;SDS011;16851;53.564;8.112;2024-02-23T13:40:43;3.50;;;1.37;;
30010;SDS011;16851;53.564;8.112;2024-02-23T13:45:51;5.37;;;1.43;;
30010;SDS011;16851;53.564;8.112;2024-02-23T13:50:56;5.00;;;0.90;;
30010;SDS011;16851;53.564;8.112;2024-02-23T13:55:59;1.57;;;1.00;;
30010;SDS011;16851;53.564;8.112;2024-02-23T14:01:04;8.30;;;1.40;;
30010;SDS011;16851;53.564;8.112;2024-02-23T14:06:07;7.43;;;1.50;;
30010;SDS011;16851;53.564;8.112;2024-02-23T14:11:09;5.53;;;1.20;;
30010;SDS011;16851;53.564;8.112;2024-02-23T14:16:12;6.67;;;1.93;;
30010;SDS011;16851;53.564;8.112;2024-02-23T14:21:14;4.20;;;1.00;;
30010;SDS011;16851;53.564;8.112;2024-02-23T14:26:17;4.70;;;1.10;;
30010;SDS011;16851;53.564;8.112;2024-02-23T14:31:24;2.70;;;1.10;;
30010;SDS011;16851;53.564;8.112;2024-02-23T14:36:30;3.23;;;1.20;;
30010;SDS011;16851;53.564;8.112;2024-02-23T14:41:36;4.27;;;1.10;;
30010;SDS011;16851;53.564;8.112;2024-02-23T14:46:38;2.50;;;0.90;;
30010;SDS011;16851;53.564;8.112;2024-02-23T14:51:44;3.20;;;1.33;;
30010;SDS011;16851;53.564;8.112;2024-02-23T14:56:47;3.00;;;1.40;;
30010;SDS011;16851;53.564;8.112;2024-02-23T15:01:49;3.47;;;1.27;;
30010;SDS011;16851;53.564;8.112;2024-02-23T15:06:53;3.73;;;1.90;;
30010;SDS011;16851;53.564;8.112;2024-02-23T15:11:55;5.80;;;1.70;;
30010;SDS011;16851;53.564;8.112;2024-02-23T15:17:00;5.20;;;1.30;;
30010;SDS011;16851;53.564;8.112;2024-02-23T15:22:03;4.30;;;1.30;;
30010;SDS011;16851;53.564;8.112;2024-02-23T15:27:07;5.73;;;1.93;;
30010;SDS011;16851;53.564;8.112;2024-02-23T15:32:10;11.73;;;2.93;;
30010;SDS011;16851;53.564;8.112;2024-02-23T15:37:15;4.27;;;1.47;;
30010;SDS011;16851;53.564;8.112;2024-02-23T15:42:18;8.83;;;1.73;;
30010;SDS011;16851;53.564;8.112;2024-02-23T15:47:22;8.57;;;1.73;;
30010;SDS011;16851;53.564;8.112;2024-02-23T15:52:26;5.33;;;2.07;;
30010;SDS011;16851;53.564;8.112;2024-02-23T15:57:28;3.60;;;1.37;;
30010;SDS011;16851;53.564;8.112;2024-02-23T16:02:31;7.73;;;1.80;;
30010;SDS011;16851;53.564;8.112;2024-02-23T16:07:35;5.20;;;1.37;;
30010;SDS011;16851;53.564;8.112;2024-02-23T16:12:37;3.27;;;1.50;;
30010;SDS011;16851;53.564;8.112;2024-02-23T16:17:40;6.97;;;1.90;;
30010;SDS011;16851;53.564;8.112;2024-02-23T16:22:43;7.87;;;1.87;;
30010;SDS011;16851;53.564;8.112;2024-02-23T16:27:50;6.20;;;2.07;;
30010;SDS011;16851;53.564;8.112;2024-02-23T16:32:52;4.73;;;1.67;;
30010;SDS011;16851;53.564;8.112;2024-02-23T16:37:56;6.40;;;1.13;;
30010;SDS011;16851;53.564;8.112;2024-02-23T16:43:01;3.93;;;0.93;;
30010;SDS011;16851;53.564;8.112;2024-02-23T16:48:06;5.80;;;1.50;;
30010;SDS011;16851;53.564;8.112;2024-02-23T16:53:13;3.13;;;1.03;;
30010;SDS011;16851;53.564;8.112;2024-02-23T16:58:16;6.57;;;1.50;;
30010;SDS011;16851;53.564;8.112;2024-02-23T17:03:21;5.87;;;1.47;;
30010;SDS011;16851;53.564;8.112;2024-02-23T17:08:28;6.47;;;2.00;;
30010;SDS011;16851;53.564;8.112;2024-02-23T17:13:33;7.27;;;1.57;;
30010;SDS011;16851;53.564;8.112;2024-02-23T17:18:37;5.13;;;1.50;;
30010;SDS011;16851;53.564;8.112;2024-02-23T17:23:39;4.73;;;1.90;;
30010;SDS011;16851;53.564;8.112;2024-02-23T17:28:46;4.83;;;1.63;;
30010;SDS011;16851;53.564;8.112;2024-02-23T17:33:51;4.83;;;1.70;;
30010;SDS011;16851;53.564;8.112;2024-02-23T17:38:53;5.93;;;1.57;;
30010;SDS011;16851;53.564;8.112;2024-02-23T17:43:58;5.27;;;1.50;;
30010;SDS011;16851;53.564;8.112;2024-02-23T17:49:01;5.80;;;1.43;;
30010;SDS011;16851;53.564;8.112;2024-02-23T17:54:02;1.97;;;1.20;;
30010;SDS011;16851;53.564;8.112;2024-02-23T17:59:10;6.10;;;1.47;;
30010;SDS011;16851;53.564;8.112;2024-02-23T18:04:15;7.90;;;1.97;;
30010;SDS011;16851;53.564;8.112;2024-02-23T18:09:19;5.73;;;1.90;;
30010;SDS011;16851;53.564;8.112;2024-02-23T18:14:24;6.10;;;1.63;;
30010;SDS011;16851;53.564;8.112;2024-02-23T18:19:27;6.53;;;1.77;;
30010;SDS011;16851;53.564;8.112;2024-02-23T18:24:31;8.33;;;1.87;;
30010;SDS011;16851;53.564;8.112;2024-02-23T18:29:33;6.60;;;2.07;;
30010;SDS011;16851;53.564;8.112;2024-02-23T18:34:40;6.90;;;2.30;;
30010;SDS011;16851;53.564;8.112;2024-02-23T18:39:42;6.00;;;1.90;;
30010;SDS011;16851;53.564;8.112;2024-02-23T18:44:50;6.80;;;2.07;;
30010;SDS011;16851;53.564;8.112;2024-02-23T18:49:53;7.33;;;2.53;;
30010;SDS011;16851;53.564;8.112;2024-02-23T18:54:55;10.40;;;3.70;;
30010;SDS011;16851;53.564;8.112;2024-02-23T19:00:02;7.17;;;2.97;;
30010;SDS011;16851;53.564;8.112;2024-02-23T19:05:08;6.83;;;2.83;;
30010;SDS011;16851;53.564;8.112;2024-02-23T19:10:12;7.87;;;2.80;;
30010;SDS011;16851;53.564;8.112;2024-02-23T19:15:19;8.10;;;3.97;;
30010;SDS011;16851;53.564;8.112;2024-02-23T19:20:23;9.37;;;2.77;;
30010;SDS011;16851;53.564;8.112;2024-02-23T19:25:25;5.87;;;2.10;;
30010;SDS011;16851;53.564;8.112;2024-02-23T19:30:30;9.47;;;2.83;;
30010;SDS011;16851;53.564;8.112;2024-02-23T19:35:32;7.67;;;2.23;;
30010;SDS011;16851;53.564;8.112;2024-02-23T19:40:34;8.60;;;2.80;;
30010;SDS011;16851;53.564;8.112;2024-02-23T19:45:36;6.77;;;3.00;;
30010;SDS011;16851;53.564;8.112;2024-02-23T19:50:38;8.83;;;2.87;;
30010;SDS011;16851;53.564;8.112;2024-02-23T19:55:42;6.47;;;3.73;;
30010;SDS011;16851;53.564;8.112;2024-02-23T20:00:48;15.60;;;5.93;;
30010;SDS011;16851;53.564;8.112;2024-02-23T20:05:50;16.07;;;5.60;;
30010;SDS011;16851;53.564;8.112;2024-02-23T20:10:57;21.17;;;5.07;;
30010;SDS011;16851;53.564;8.112;2024-02-23T20:16:04;7.17;;;2.90;;
30010;SDS011;16851;53.564;8.112;2024-02-23T20:21:06;7.00;;;2.80;;
30010;SDS011;16851;53.564;8.112;2024-02-23T20:26:10;6.30;;;3.27;;
30010;SDS011;16851;53.564;8.112;2024-02-23T20:31:12;6.20;;;2.80;;
30010;SDS011;16851;53.564;8.112;2024-02-23T20:36:14;8.67;;;3.73;;
30010;SDS011;16851;53.564;8.112;2024-02-23T20:41:16;9.73;;;3.97;;
30010;SDS011;16851;53.564;8.112;2024-02-23T20:46:24;7.27;;;3.70;;
30010;SDS011;16851;53.564;8.112;2024-02-23T20:51:27;5.07;;;2.90;;
30010;SDS011;16851;53.564;8.112;2024-02-23T20:56:30;7.47;;;3.00;;
30010;SDS011;16851;53.564;8.112;2024-02-23T21:01:33;9.27;;;3.77;;
30010;SDS011;16851;53.564;8.112;2024-02-23T21:06:35;10.33;;;3.33;;
30010;SDS011;16851;53.564;8.112;2024-02-23T21:11:40;9.93;;;3.50;;
30010;SDS011;16851;53.564;8.112;2024-02-23T21:16:47;10.87;;;3.87;;
30010;SDS011;16851;53.564;8.112;2024-02-23T21:21:52;12.87;;;3.60;;
30010;SDS011;16851;53.564;8.112;2024-02-23T21:26:54;9.13;;;3.33;;
30010;SDS011;16851;53.564;8.112;2024-02-23T21:31:58;7.97;;;3.17;;
30010;SDS011;16851;53.564;8.112;2024-02-23T21:37:01;5.93;;;2.80;;
30010;SDS011;16851;53.564;8.112;2024-02-23T21:42:03;7.30;;;2.90;;
30010;SDS011;16851;53.564;8.112;2024-02-23T21:47:07;6.97;;;2.93;;
30010;SDS011;16851;53.564;8.112;2024-02-23T21:52:11;7.57;;;3.03;;
30010;SDS011;16851;53.564;8.112;2024-02-23T21:57:15;10.50;;;2.87;;
30010;SDS011;16851;53.564;8.112;2024-02-23T22:02:18;5.97;;;3.00;;
30010;SDS011;16851;53.564;8.112;2024-02-23T22:07:19;3.93;;;1.80;;
30010;SDS011;16851;53.564;8.112;2024-02-23T22:12:25;5.73;;;2.37;;
30010;SDS011;16851;53.564;8.112;2024-02-23T22:17:27;5.60;;;2.07;;
30010;SDS011;16851;53.564;8.112;2024-02-23T22:22:32;6.10;;;2.37;;
30010;SDS011;16851;53.564;8.112;2024-02-23T22:27:36;5.77;;;2.27;;
30010;SDS011;16851;53.564;8.112;2024-02-23T22:32:41;6.57;;;2.47;;
30010;SDS011;16851;53.564;8.112;2024-02-23T22:37:44;3.87;;;1.90;;
30010;SDS011;16851;53.564;8.112;2024-02-23T22:42:48;8.40;;;2.20;;
30010;SDS011;16851;53.564;8.112;2024-02-23T22:47:50;4.47;;;2.10;;
30010;SDS011;16851;53.564;8.112;2024-02-23T22:52:54;4.77;;;2.07;;
30010;SDS011;16851;53.564;8.112;2024-02-23T22:57:59;7.03;;;2.57;;
30010;SDS011;16851;53.564;8.112;2024-02-23T23:03:03;4.40;;;2.47;;
30010;SDS011;16851;53.564;8.112;2024-02-23T23:08:06;5.10;;;2.47;;
30010;SDS011;16851;53.564;8.112;2024-02-23T23:13:15;6.90;;;2.57;;
30010;SDS011;16851;53.564;8.112;2024-02-23T23:18:17;6.30;;;2.67;;
30010;SDS011;16851;53.564;8.112;2024-02-23T23:23:19;5.60;;;2.60;;
30010;SDS011;16851;53.564;8.112;2024-02-23T23:28:21;7.87;;;2.80;;
30010;SDS011;16851;53.564;8.112;2024-02-23T23:33:23;6.20;;;2.80;;
30010;SDS011;16851;53.564;8.112;2024-02-23T23:38:28;6.07;;;3.00;;
30010;SDS011;16851;53.564;8.112;2024-02-23T23:43:32;5.23;;;2.77;;
30010;SDS011;16851;53.564;8.112;2024-02-23T23:48:35;12.93;;;3.27;;
30010;SDS011;16851;53.564;8.112;2024-02-23T23:53:37;8.40;;;3.53;;
30010;SDS011;16851;53.564;8.112;2024-02-23T23:58:41;8.10;;;3.63;;
